Time;durP1;ratioP1;P1;durP2;ratioP2;P2;SDS_P1;SDS_P2;PMS_P1;PMS_P2;Temp;Humidity;BMP_temperature;BMP_pressure;BME280_temperature;BME280_humidity;BME280_pressure;Samples;Min_cycle;Max_cycle;Signal;HPM_P1;HPM_P2
2023/03/05 00:01:33;;;;;;;2.17;0.30;;;;;;;2.33;49.51;100933.81;5112353;28;20497;-64
2023/03/05 00:04:01;;;;;;;1.58;0.32;;;;;;;2.35;48.84;100966.41;5112016;28;20023;-65
2023/03/05 00:06:30;;;;;;;1.23;0.20;;;;;;;2.52;49.52;100959.50;5111834;28;20075;-65
2023/03/05 00:08:57;;;;;;;2.75;0.40;;;;;;;2.47;49.42;100967.06;5110642;28;20114;-65
2023/03/05 00:11:24;;;;;;;2.92;0.32;;;;;;;2.70;48.86;100956.94;5112123;28;20055;-64
2023/03/05 00:13:53;;;;;;;2.40;0.40;;;;;;;2.54;48.45;100962.84;5124043;28;20031;-65
2023/03/05 00:16:19;;;;;;;1.35;0.30;;;;;;;2.58;48.30;100958.09;5125158;28;20031;-65
2023/03/05 00:18:45;;;;;;;0.95;0.20;;;;;;;2.71;48.25;100947.97;5124622;28;20489;-64
2023/03/05 00:21:24;;;;;;;2.28;0.40;;;;;;;2.75;48.01;100948.56;5112199;28;20452;-64
2023/03/05 00:23:51;;;;;;;0.85;0.20;;;;;;;2.87;49.27;100955.34;5112703;28;20122;-64
2023/03/05 00:26:21;;;;;;;1.25;0.30;;;;;;;2.84;49.71;100955.63;5112043;28;20065;-64
2023/03/05 00:28:51;;;;;;;1.27;0.30;;;;;;;2.50;49.90;100942.88;5112524;28;20027;-65
2023/03/05 00:31:19;;;;;;;1.00;0.30;;;;;;;2.57;49.77;100946.63;5112782;28;20028;-64
2023/03/05 00:33:45;;;;;;;1.40;0.38;;;;;;;2.58;49.53;100944.78;5111632;28;20027;-65
2023/03/05 00:36:11;;;;;;;0.82;0.30;;;;;;;2.45;49.40;100934.50;5111049;28;20031;-65
2023/03/05 00:38:36;;;;;;;1.58;0.40;;;;;;;2.37;48.62;100942.34;5110539;28;20027;-65
2023/03/05 00:41:02;;;;;;;1.38;0.30;;;;;;;2.34;47.79;100940.78;5110378;28;20047;-64
2023/03/05 00:43:28;;;;;;;1.40;0.30;;;;;;;2.51;47.18;100925.09;5111464;28;20122;-65
2023/03/05 00:45:53;;;;;;;1.77;0.40;;;;;;;2.47;47.48;100931.69;5112034;28;20058;-65
2023/03/05 00:48:20;;;;;;;1.80;0.30;;;;;;;2.41;47.60;100929.59;5109989;28;20122;-65
2023/03/05 00:50:45;;;;;;;1.27;0.20;;;;;;;2.27;47.58;100922.94;5111935;28;20408;-65
2023/03/05 00:53:10;;;;;;;1.23;0.35;;;;;;;2.35;47.94;100915.94;5111562;28;20176;-64
2023/03/05 00:55:36;;;;;;;2.70;0.50;;;;;;;2.56;47.53;100920.22;5111806;28;20031;-65
2023/03/05 00:58:02;;;;;;;3.05;0.40;;;;;;;2.59;45.68;100935.88;5112443;28;20130;-65
2023/03/05 01:00:28;;;;;;;1.33;0.30;;;;;;;2.30;45.61;100899.59;5111957;28;20095;-65
2023/03/05 01:02:53;;;;;;;1.58;0.10;;;;;;;2.46;45.86;100924.72;5111502;28;20024;-65
2023/03/05 01:05:19;;;;;;;0.55;0.17;;;;;;;2.38;46.43;100911.31;5112165;28;20030;-64
2023/03/05 01:07:44;;;;;;;1.00;0.20;;;;;;;2.34;46.76;100916.91;5112058;28;20055;-65
2023/03/05 01:10:12;;;;;;;1.00;0.30;;;;;;;2.34;46.30;100926.69;5114317;28;20446;-65
2023/03/05 01:12:37;;;;;;;1.15;0.30;;;;;;;2.41;46.16;100916.34;5116147;28;20028;-65
2023/03/05 01:15:03;;;;;;;1.05;0.20;;;;;;;2.11;46.05;100921.69;5116108;28;20035;-65
2023/03/05 01:17:29;;;;;;;0.90;0.20;;;;;;;2.38;46.26;100911.31;5114989;28;20023;-64
2023/03/05 01:19:54;;;;;;;0.85;0.17;;;;;;;2.30;47.13;100910.22;5114455;28;20154;-64
2023/03/05 01:22:20;;;;;;;1.08;0.30;;;;;;;2.38;46.80;100898.84;5131053;27;20324;-64
2023/03/05 01:24:45;;;;;;;1.15;0.20;;;;;;;2.50;46.63;100889.75;5115990;28;20028;-64
2023/03/05 01:27:10;;;;;;;2.63;0.30;;;;;;;2.48;47.21;100893.53;5115868;28;20371;-64
2023/03/05 01:29:36;;;;;;;1.23;0.20;;;;;;;2.35;48.35;100891.19;5115421;28;20031;-64
2023/03/05 01:32:02;;;;;;;0.55;0.17;;;;;;;2.34;48.54;100895.66;5130675;27;20036;-64
2023/03/05 01:34:27;;;;;;;0.63;0.20;;;;;;;2.23;46.06;100898.50;5115561;28;20027;-64
2023/03/05 01:36:52;;;;;;;0.82;0.20;;;;;;;2.42;47.25;100881.69;5115432;28;20489;-64
2023/03/05 01:39:18;;;;;;;0.55;0.10;;;;;;;2.42;46.78;100894.97;5116044;28;20478;-64
2023/03/05 01:41:43;;;;;;;0.73;0.20;;;;;;;2.23;47.07;100871.09;5131419;28;20049;-64
2023/03/05 01:44:35;;;;;;;1.80;0.30;;;;;;;2.27;46.18;100875.97;5135353;28;20039;-65
2023/03/05 01:47:00;;;;;;;1.60;0.30;;;;;;;2.16;46.72;100868.19;5113404;28;20114;-65
2023/03/05 01:49:27;;;;;;;1.38;0.30;;;;;;;2.13;47.77;100880.91;5114398;28;20513;-64
2023/03/05 01:52:05;;;;;;;1.52;0.20;;;;;;;1.94;46.76;100887.91;5114690;28;20035;-65
2023/03/05 01:54:45;;;;;;;0.80;0.17;;;;;;;2.09;45.91;100875.88;5115079;28;20027;-64
2023/03/05 01:57:25;;;;;;;1.42;0.30;;;;;;;2.26;45.72;100878.78;5113728;28;20027;-64
2023/03/05 01:59:56;;;;;;;1.00;0.22;;;;;;;2.32;46.74;100876.41;5115110;28;20023;-65
2023/03/05 02:02:22;;;;;;;2.65;0.40;;;;;;;2.53;45.93;100862.06;5114355;28;20042;-64
2023/03/05 02:05:01;;;;;;;2.47;0.30;;;;;;;2.53;46.55;100867.38;5113486;28;20024;-64
2023/03/05 02:07:28;;;;;;;1.48;0.20;;;;;;;2.53;46.36;100862.06;5114038;28;20041;-64
2023/03/05 02:09:53;;;;;;;1.70;0.30;;;;;;;2.51;46.29;100869.34;5114704;28;20024;-64
2023/03/05 02:12:19;;;;;;;0.68;0.10;;;;;;;2.63;46.47;100856.72;5121181;28;20023;-65
2023/03/05 02:14:49;;;;;;;1.13;0.20;;;;;;;2.47;46.41;100854.69;5133823;28;20466;-65
2023/03/05 02:17:15;;;;;;;1.13;0.22;;;;;;;2.44;46.73;100858.44;5114354;28;20479;-64
2023/03/05 02:19:53;;;;;;;0.73;0.20;;;;;;;2.37;46.54;100846.75;5115416;28;20075;-64
2023/03/05 02:22:21;;;;;;;0.30;0.10;;;;;;;2.42;46.07;100851.59;5114883;28;20039;-64
2023/03/05 02:24:46;;;;;;;1.83;0.20;;;;;;;2.42;45.64;100849.81;5114377;28;20077;-65
2023/03/05 02:27:13;;;;;;;1.23;0.28;;;;;;;2.46;46.33;100848.53;5114879;28;20028;-64
2023/03/05 02:29:42;;;;;;;1.15;0.17;;;;;;;2.43;46.32;100856.78;5114443;28;20031;-64
2023/03/05 02:32:10;;;;;;;0.85;0.25;;;;;;;2.36;46.51;100845.06;5113661;28;20045;-64
2023/03/05 02:34:35;;;;;;;0.50;0.15;;;;;;;2.05;46.37;100849.75;5112679;28;20054;-65
2023/03/05 02:37:03;;;;;;;1.33;0.20;;;;;;;2.24;46.61;100844.41;5113318;28;20047;-64
2023/03/05 02:39:32;;;;;;;2.28;0.30;;;;;;;2.26;46.19;100855.72;5113776;28;20035;-65
2023/03/05 02:41:57;;;;;;;0.50;0.10;;;;;;;2.11;45.88;100847.34;5114329;27;20081;-64
2023/03/05 02:44:23;;;;;;;1.33;0.15;;;;;;;1.88;46.83;100851.31;5114024;27;20039;-64
2023/03/05 02:46:48;;;;;;;1.23;0.30;;;;;;;1.91;46.62;100845.72;5114236;28;20039;-64
2023/03/05 02:49:14;;;;;;;1.05;0.32;;;;;;;1.82;46.83;100842.13;5113942;28;20132;-64
2023/03/05 02:51:39;;;;;;;1.02;0.20;;;;;;;1.93;46.32;100842.94;5114077;28;20038;-64
2023/03/05 02:54:05;;;;;;;1.92;0.32;;;;;;;1.86;46.60;100832.91;5114146;28;20126;-64
2023/03/05 02:56:30;;;;;;;0.65;0.20;;;;;;;1.68;45.14;100845.19;5116091;28;20026;-64
2023/03/05 02:58:56;;;;;;;1.83;0.20;;;;;;;1.89;45.14;100831.78;5134763;28;20086;-65
2023/03/05 03:01:21;;;;;;;1.40;0.40;;;;;;;1.96;45.69;100805.50;5116395;28;20089;-64
2023/03/05 03:03:46;;;;;;;1.63;0.20;;;;;;;2.30;45.67;100819.94;5127461;28;20034;-64
2023/03/05 03:06:12;;;;;;;0.60;0.10;;;;;;;2.30;45.26;100817.28;5133921;28;20016;-65
2023/03/05 03:08:37;;;;;;;0.93;0.30;;;;;;;2.31;46.39;100820.75;5119381;28;20020;-64
2023/03/05 03:11:07;;;;;;;1.80;0.30;;;;;;;2.45;45.62;100822.09;5112558;28;20030;-64
2023/03/05 03:13:33;;;;;;;0.93;0.20;;;;;;;2.12;44.15;100827.00;5113052;28;20028;-65
2023/03/05 03:16:04;;;;;;;3.40;0.30;;;;;;;2.31;44.40;100815.44;5113333;28;20081;-64
2023/03/05 03:18:30;;;;;;;2.30;0.30;;;;;;;2.10;45.07;100813.84;5113541;28;20218;-64
2023/03/05 03:20:55;;;;;;;1.10;0.25;;;;;;;2.15;45.02;100810.75;5096436;28;20036;-64
2023/03/05 03:23:20;;;;;;;2.35;0.22;;;;;;;2.11;44.49;100815.50;5092779;28;20027;-65
2023/03/05 03:25:46;;;;;;;1.55;0.22;;;;;;;2.13;44.70;100810.06;5091232;28;20526;-64
2023/03/05 03:28:11;;;;;;;0.45;0.10;;;;;;;1.91;43.10;100797.97;5093502;28;20099;-64
2023/03/05 03:30:37;;;;;;;1.58;0.20;;;;;;;2.21;44.49;100806.69;5092674;28;20487;-64
2023/03/05 03:33:02;;;;;;;0.30;0.10;;;;;;;2.18;44.39;100802.50;5091193;28;20032;-64
2023/03/05 03:35:27;;;;;;;1.30;0.20;;;;;;;2.05;43.29;100800.19;5092505;28;20040;-64
2023/03/05 03:37:53;;;;;;;1.13;0.30;;;;;;;2.28;43.32;100791.84;5092946;28;20036;-64
2023/03/05 03:40:18;;;;;;;0.47;0.10;;;;;;;2.29;44.14;100799.69;5092786;28;20454;-64
2023/03/05 03:42:44;;;;;;;2.03;0.20;;;;;;;2.10;44.55;100794.44;5092786;28;20107;-63
2023/03/05 03:45:10;;;;;;;3.42;0.30;;;;;;;2.22;44.74;100800.38;5092965;28;20043;-64
2023/03/05 03:47:35;;;;;;;1.65;0.20;;;;;;;2.46;44.76;100799.91;5092352;28;20557;-64
2023/03/05 03:50:01;;;;;;;0.60;0.15;;;;;;;2.49;43.93;100796.94;5091447;28;20088;-64
2023/03/05 03:52:26;;;;;;;1.50;0.25;;;;;;;2.17;44.70;100792.88;5091923;28;20084;-64
2023/03/05 03:54:52;;;;;;;1.65;0.40;;;;;;;2.39;44.57;100794.34;5091810;28;20024;-64
2023/03/05 03:57:18;;;;;;;2.85;0.28;;;;;;;2.44;44.70;100791.22;5092161;28;20073;-64
2023/03/05 03:59:44;;;;;;;0.45;0.20;;;;;;;2.45;44.73;100792.88;5090776;28;20028;-64
2023/03/05 04:02:10;;;;;;;1.80;0.20;;;;;;;2.29;44.51;100789.06;5090709;28;20046;-64
2023/03/05 04:04:35;;;;;;;1.08;0.50;;;;;;;2.34;44.68;100778.00;5089458;28;20032;-64
2023/03/05 04:07:01;;;;;;;1.73;0.10;;;;;;;2.45;45.04;100775.16;5091441;28;20028;-64
2023/03/05 04:09:26;;;;;;;0.30;0.10;;;;;;;2.39;44.04;100780.22;5091472;28;20383;-65
2023/03/05 04:11:52;;;;;;;0.75;0.20;;;;;;;2.45;43.85;100777.81;5090840;28;20444;-64
2023/03/05 04:14:17;;;;;;;1.38;0.30;;;;;;;2.25;43.70;100774.41;5091956;28;20078;-64
2023/03/05 04:16:42;;;;;;;1.15;0.10;;;;;;;2.49;44.10;100776.53;5091263;28;20035;-64
2023/03/05 04:19:08;;;;;;;1.27;0.38;;;;;;;2.62;43.36;100773.53;5092008;28;20105;-64
2023/03/05 04:21:33;;;;;;;2.08;0.20;;;;;;;2.62;44.21;100762.91;5089960;28;20042;-64
2023/03/05 04:23:59;;;;;;;4.35;0.30;;;;;;;2.56;44.75;100771.47;5098050;28;20020;-65
2023/03/05 04:26:24;;;;;;;0.82;0.20;;;;;;;2.45;44.08;100761.03;5102318;28;20035;-64
2023/03/05 04:28:49;;;;;;;0.93;0.17;;;;;;;2.31;44.73;100776.44;5091921;28;20020;-64
2023/03/05 04:31:16;;;;;;;0.47;0.10;;;;;;;2.47;44.93;100770.53;5091917;28;20340;-64
2023/03/05 04:33:41;;;;;;;1.15;0.15;;;;;;;2.37;44.63;100761.75;5091437;28;20024;-64
2023/03/05 04:36:07;;;;;;;0.45;0.20;;;;;;;2.33;45.14;100774.50;5091262;28;20085;-64
2023/03/05 04:38:32;;;;;;;1.65;0.20;;;;;;;2.33;44.75;100776.31;5091117;28;20531;-64
2023/03/05 04:40:58;;;;;;;1.00;0.20;;;;;;;2.26;43.57;100762.81;5092174;28;20028;-64
2023/03/05 04:43:23;;;;;;;1.17;0.20;;;;;;;2.33;44.48;100769.19;5093060;28;20384;-64
2023/03/05 04:45:48;;;;;;;1.23;0.20;;;;;;;2.40;44.75;100763.31;5096312;28;20035;-64
2023/03/05 04:48:15;;;;;;;0.45;0.10;;;;;;;2.35;44.90;100772.56;5096044;28;20497;-64
2023/03/05 04:50:41;;;;;;;0.95;0.30;;;;;;;2.15;45.88;100768.28;5096084;28;20080;-64
2023/03/05 04:53:06;;;;;;;1.05;0.28;;;;;;;2.25;44.96;100765.59;5096122;28;20021;-64
2023/03/05 04:55:32;;;;;;;1.15;0.20;;;;;;;2.20;45.14;100770.50;5094719;28;20036;-64
2023/03/05 04:57:58;;;;;;;1.85;0.20;;;;;;;1.85;44.62;100759.59;5095900;28;20127;-64
2023/03/05 05:00:24;;;;;;;0.52;0.25;;;;;;;1.84;43.70;100770.34;5095643;28;20032;-64
2023/03/05 05:02:50;;;;;;;0.73;0.17;;;;;;;2.08;44.65;100769.84;5095457;28;20103;-64
2023/03/05 05:05:23;;;;;;;0.55;0.10;;;;;;;2.20;44.20;100765.19;5095156;28;20051;-65
2023/03/05 05:07:48;;;;;;;0.80;0.15;;;;;;;2.03;44.95;100774.75;5095782;28;20415;-64
2023/03/05 05:10:14;;;;;;;2.38;0.47;;;;;;;2.09;45.40;100763.56;5093814;28;20044;-64
2023/03/05 05:12:40;;;;;;;0.70;0.15;;;;;;;1.96;44.88;100768.38;5095118;28;20046;-64
2023/03/05 05:15:07;;;;;;;1.58;0.20;;;;;;;1.85;46.07;100761.38;5095698;28;20028;-64
2023/03/05 05:17:33;;;;;;;0.65;0.20;;;;;;;2.01;45.18;100763.44;5095496;28;20433;-64
2023/03/05 05:19:59;;;;;;;1.55;0.20;;;;;;;1.86;44.71;100763.09;5095479;28;20056;-64
2023/03/05 05:22:27;;;;;;;1.30;0.20;;;;;;;2.03;43.98;100757.03;5094565;28;20040;-64
2023/03/05 05:24:52;;;;;;;2.78;0.20;;;;;;;1.90;44.07;100758.31;5095917;28;20024;-64
2023/03/05 05:27:17;;;;;;;0.38;0.10;;;;;;;1.94;44.47;100760.53;5095333;28;20103;-64
2023/03/05 05:29:45;;;;;;;0.90;0.20;;;;;;;2.05;44.20;100764.81;5095217;28;20063;-64
2023/03/05 05:32:11;;;;;;;1.35;0.30;;;;;;;1.98;44.48;100753.13;5095234;28;20119;-64
2023/03/05 05:34:36;;;;;;;0.88;0.20;;;;;;;1.93;44.31;100768.66;5095152;28;20111;-64
2023/03/05 05:37:01;;;;;;;1.00;0.10;;;;;;;1.66;44.00;100749.03;5095590;28;20008;-64
2023/03/05 05:39:27;;;;;;;0.73;0.20;;;;;;;1.94;44.14;100765.00;5095264;28;20055;-64
2023/03/05 05:41:52;;;;;;;1.15;0.22;;;;;;;1.89;43.32;100760.13;5095351;28;20028;-65
2023/03/05 05:44:18;;;;;;;1.90;0.20;;;;;;;1.97;44.33;100754.09;5103319;28;20028;-65
2023/03/05 05:46:43;;;;;;;2.72;0.20;;;;;;;1.91;44.62;100757.34;5111338;28;20510;-65
2023/03/05 05:49:09;;;;;;;1.33;0.20;;;;;;;1.94;44.27;100760.53;5076010;28;20042;-64
2023/03/05 05:51:34;;;;;;;1.25;0.13;;;;;;;1.94;44.28;100754.41;5093388;28;20051;-65
2023/03/05 05:54:00;;;;;;;0.45;0.17;;;;;;;1.84;44.03;100754.41;5092269;28;20036;-64
2023/03/05 05:56:25;;;;;;;0.28;0.10;;;;;;;1.90;43.38;100747.72;5093877;28;20110;-64
2023/03/05 05:58:51;;;;;;;2.30;0.38;;;;;;;1.85;43.26;100756.06;5092011;28;20058;-64
2023/03/05 06:01:23;;;;;;;1.15;0.20;;;;;;;1.93;43.68;100761.53;5094436;28;20081;-64
2023/03/05 06:03:50;;;;;;;1.38;0.38;;;;;;;1.86;44.01;100758.59;5091588;28;20024;-64
2023/03/05 06:06:18;;;;;;;1.48;0.28;;;;;;;2.01;43.89;100761.63;5092804;28;20501;-64
2023/03/05 06:08:44;;;;;;;0.85;0.10;;;;;;;1.92;44.26;100756.34;5093681;28;20356;-64
2023/03/05 06:11:09;;;;;;;0.43;0.10;;;;;;;1.91;44.81;100765.28;5093811;28;20027;-64
2023/03/05 06:13:35;;;;;;;0.63;0.15;;;;;;;1.99;44.76;100755.63;5094178;28;20028;-64
2023/03/05 06:16:04;;;;;;;1.52;0.20;;;;;;;2.02;43.85;100768.63;5093618;28;20206;-64
2023/03/05 06:18:30;;;;;;;0.85;0.20;;;;;;;1.92;43.01;100756.34;5093490;28;20487;-64
2023/03/05 06:21:01;;;;;;;0.30;0.10;;;;;;;1.93;43.44;100755.38;5093991;28;20043;-64
2023/03/05 06:23:27;;;;;;;1.35;0.15;;;;;;;1.90;43.08;100759.16;5093528;28;20035;-64
2023/03/05 06:25:53;;;;;;;0.95;0.17;;;;;;;1.90;42.67;100755.66;5094308;28;20495;-64
2023/03/05 06:28:20;;;;;;;2.72;0.20;;;;;;;1.82;43.23;100740.44;5094077;28;20036;-64
2023/03/05 06:30:46;;;;;;;0.73;0.10;;;;;;;2.01;43.17;100760.78;5092951;28;20107;-65
2023/03/05 06:33:11;;;;;;;1.15;0.20;;;;;;;2.03;42.95;100748.22;5094335;28;20101;-64
2023/03/05 06:35:38;;;;;;;1.17;0.20;;;;;;;1.99;42.65;100758.28;5091812;28;20051;-64
2023/03/05 06:38:04;;;;;;;0.98;0.35;;;;;;;2.09;42.52;100750.31;5115230;28;20023;-65
2023/03/05 06:40:30;;;;;;;0.77;0.20;;;;;;;2.02;41.92;100751.84;5099504;28;20133;-66
2023/03/05 06:42:56;;;;;;;0.85;0.13;;;;;;;2.17;42.19;100745.09;5094045;28;20443;-65
2023/03/05 06:45:21;;;;;;;1.75;0.20;;;;;;;2.06;42.67;100748.75;5092447;28;20077;-64
2023/03/05 06:47:46;;;;;;;0.40;0.20;;;;;;;2.00;42.25;100753.81;5093350;28;20028;-65
2023/03/05 06:50:12;;;;;;;0.70;0.20;;;;;;;2.15;42.79;100762.97;5093467;28;20391;-67
2023/03/05 06:52:39;;;;;;;1.42;0.10;;;;;;;2.16;42.41;100745.25;5093643;28;20073;-65
2023/03/05 06:55:06;;;;;;;0.52;0.20;;;;;;;2.19;42.32;100755.56;5093481;28;20035;-63
2023/03/05 06:57:31;;;;;;;0.95;0.30;;;;;;;2.18;42.19;100736.13;5093544;28;20062;-63
2023/03/05 06:59:56;;;;;;;0.88;0.28;;;;;;;2.25;41.50;100749.66;5091422;28;20674;-67
2023/03/05 07:02:22;;;;;;;1.45;0.17;;;;;;;2.30;41.82;100752.72;5092428;28;20032;-64
2023/03/05 07:04:47;;;;;;;2.28;0.10;;;;;;;2.32;41.92;100762.22;5100104;28;20012;-66
2023/03/05 07:07:13;;;;;;;2.35;0.20;;;;;;;2.51;41.91;100757.78;5112194;28;20100;-64
2023/03/05 07:09:41;;;;;;;0.68;0.17;;;;;;;2.52;42.41;100757.66;5105571;28;20037;-65
2023/03/05 07:12:10;;;;;;;0.85;0.25;;;;;;;2.48;41.23;100744.78;5093960;28;20032;-65
2023/03/05 07:14:36;;;;;;;1.10;0.20;;;;;;;2.47;42.01;100756.41;5093648;28;20042;-65
2023/03/05 07:17:01;;;;;;;1.17;0.20;;;;;;;2.65;43.14;100743.16;5093083;28;20110;-66
2023/03/05 07:19:27;;;;;;;1.63;0.10;;;;;;;2.56;42.44;100742.25;5092641;28;20059;-66
2023/03/05 07:21:52;;;;;;;2.05;0.17;;;;;;;2.72;42.10;100745.09;5092375;28;20034;-66
2023/03/05 07:24:18;;;;;;;0.80;0.20;;;;;;;2.52;42.12;100757.66;5100856;28;20028;-65
2023/03/05 07:26:43;;;;;;;0.40;0.20;;;;;;;2.66;42.25;100745.69;5108939;28;20154;-67
2023/03/05 07:29:08;;;;;;;0.77;0.10;;;;;;;2.65;41.40;100744.03;5093820;28;20055;-66
2023/03/05 07:31:34;;;;;;;0.80;0.32;;;;;;;2.50;39.94;100740.19;5091356;28;20210;-66
2023/03/05 07:34:01;;;;;;;1.10;0.20;;;;;;;2.68;40.17;100746.38;5093387;28;20502;-67
2023/03/05 07:36:27;;;;;;;1.00;0.20;;;;;;;2.90;39.62;100757.56;5093619;28;20020;-66
2023/03/05 07:38:53;;;;;;;0.93;0.30;;;;;;;2.98;40.01;100749.66;5087462;28;20033;-67
2023/03/05 07:41:19;;;;;;;0.82;0.20;;;;;;;2.86;38.61;100750.88;5074996;28;20089;-66
2023/03/05 07:43:47;;;;;;;0.38;0.10;;;;;;;2.85;39.97;100759.81;5076081;28;20119;-66
2023/03/05 07:46:14;;;;;;;0.55;0.15;;;;;;;2.87;38.97;100753.38;5091781;28;20047;-66
2023/03/05 07:48:40;;;;;;;3.03;0.50;;;;;;;2.87;38.72;100747.22;5092382;28;20032;-66
2023/03/05 07:51:08;;;;;;;0.20;0.10;;;;;;;3.14;39.34;100747.16;5092580;28;20053;-66
2023/03/05 07:53:34;;;;;;;0.77;0.22;;;;;;;3.10;39.53;100748.44;5092530;28;20331;-66
2023/03/05 07:55:59;;;;;;;1.92;0.30;;;;;;;2.86;39.54;100746.38;5091137;28;20024;-66
2023/03/05 07:58:25;;;;;;;1.55;0.20;;;;;;;2.81;39.29;100746.84;5091913;28;20123;-67
2023/03/05 08:00:50;;;;;;;1.38;0.10;;;;;;;3.10;40.26;100740.47;5091129;28;20020;-66
2023/03/05 08:03:16;;;;;;;0.90;0.20;;;;;;;3.21;40.08;100740.25;5091622;28;20050;-66
2023/03/05 08:05:42;;;;;;;0.52;0.10;;;;;;;3.18;39.76;100751.19;5089707;28;20494;-66
2023/03/05 08:08:08;;;;;;;1.75;0.30;;;;;;;3.09;38.44;100738.81;5090288;28;20110;-66
2023/03/05 08:10:35;;;;;;;0.60;0.10;;;;;;;3.36;38.59;100734.38;5089962;28;20051;-66
2023/03/05 08:13:01;;;;;;;0.30;0.10;;;;;;;3.35;39.30;100720.25;5091766;28;20505;-66
2023/03/05 08:15:26;;;;;;;1.40;0.20;;;;;;;3.53;39.31;100722.88;5091253;28;20390;-66
2023/03/05 08:17:52;;;;;;;1.50;0.30;;;;;;;3.60;39.59;100725.75;5090863;28;20424;-66
2023/03/05 08:20:18;;;;;;;1.00;0.25;;;;;;;3.55;39.67;100730.72;5091124;28;20423;-66
2023/03/05 08:22:44;;;;;;;2.78;0.30;;;;;;;3.56;40.76;100719.91;5093251;28;20027;-66
2023/03/05 08:25:10;;;;;;;1.77;0.30;;;;;;;3.43;41.12;100732.78;5098615;28;20090;-66
2023/03/05 08:27:43;;;;;;;1.83;0.25;;;;;;;3.47;41.34;100708.34;5112768;28;20008;-65
2023/03/05 08:30:15;;;;;;;2.72;0.20;;;;;;;3.70;41.65;100718.50;5104593;28;20036;-65
2023/03/05 08:32:41;;;;;;;0.90;0.30;;;;;;;3.64;41.64;100704.00;5091672;28;20063;-66
2023/03/05 08:35:08;;;;;;;1.05;0.20;;;;;;;4.00;41.29;100711.84;5091843;28;20091;-66
2023/03/05 08:37:34;;;;;;;2.15;0.40;;;;;;;4.10;41.53;100711.72;5096190;28;20029;-66
2023/03/05 08:39:59;;;;;;;1.02;0.28;;;;;;;4.16;42.43;100714.59;5091800;28;20054;-65
2023/03/05 08:42:24;;;;;;;2.55;0.50;;;;;;;4.18;43.04;100709.94;5092084;28;20509;-66
2023/03/05 08:44:50;;;;;;;1.13;0.20;;;;;;;4.10;43.00;100706.41;5091407;28;20024;-67
2023/03/05 08:47:17;;;;;;;0.88;0.17;;;;;;;4.18;43.88;100704.63;5091933;28;20028;-66
2023/03/05 08:49:43;;;;;;;2.83;0.47;;;;;;;4.21;44.52;100692.81;5092112;28;20498;-65
2023/03/05 08:52:09;;;;;;;1.60;0.40;;;;;;;4.14;43.92;100691.78;5092384;28;20035;-65
2023/03/05 08:54:35;;;;;;;0.90;0.10;;;;;;;4.19;43.07;100692.97;5092054;28;20332;-66
2023/03/05 08:57:01;;;;;;;1.33;0.28;;;;;;;4.31;43.35;100703.34;5092251;28;20024;-66
2023/03/05 08:59:27;;;;;;;0.43;0.20;;;;;;;4.26;43.95;100692.31;5090740;28;20503;-66
2023/03/05 09:01:52;;;;;;;0.80;0.10;;;;;;;4.19;43.47;100687.63;5091874;28;20111;-66
2023/03/05 09:04:18;;;;;;;1.15;0.10;;;;;;;4.26;44.32;100681.66;5093971;28;20056;-66
2023/03/05 09:06:43;;;;;;;0.65;0.20;;;;;;;4.32;43.96;100678.38;5092272;28;20031;-66
2023/03/05 09:09:09;;;;;;;2.33;0.40;;;;;;;4.35;43.45;100678.88;5092000;28;20033;-66
2023/03/05 09:11:35;;;;;;;1.23;0.10;;;;;;;4.31;43.39;100676.72;5091756;28;20035;-66
2023/03/05 09:14:05;;;;;;;1.48;0.20;;;;;;;4.21;43.94;100659.03;5091807;28;20032;-66
2023/03/05 09:16:32;;;;;;;1.50;0.28;;;;;;;4.49;43.65;100672.09;5091549;28;20031;-66
2023/03/05 09:18:58;;;;;;;1.23;0.30;;;;;;;4.14;44.25;100668.66;5091955;28;20044;-66
2023/03/05 09:21:24;;;;;;;1.05;0.25;;;;;;;4.40;45.92;100663.25;5092420;28;20031;-66
2023/03/05 09:23:49;;;;;;;3.42;0.60;;;;;;;4.55;45.64;100671.44;5086568;28;20032;-66
2023/03/05 09:26:18;;;;;;;2.20;0.20;;;;;;;4.32;45.62;100662.38;5087423;28;20043;-67
2023/03/05 09:28:44;;;;;;;2.28;0.28;;;;;;;4.20;45.78;100654.66;5084099;28;20488;-66
2023/03/05 09:31:10;;;;;;;1.25;0.32;;;;;;;4.05;46.27;100650.97;5081554;28;20028;-66
2023/03/05 09:33:37;;;;;;;4.32;0.40;;;;;;;3.94;48.28;100635.28;5079088;28;20102;-66
2023/03/05 09:36:04;;;;;;;1.52;0.35;;;;;;;4.11;49.24;100658.31;5088194;28;20044;-66
2023/03/05 09:38:29;;;;;;;4.43;0.38;;;;;;;4.32;47.89;100649.06;5082545;28;20502;-66
2023/03/05 09:41:14;;;;;;;1.23;0.20;;;;;;;4.36;47.07;100655.72;5089847;28;20070;-66
2023/03/05 09:44:12;;;;;;;3.28;0.50;;;;;;;4.30;47.27;100643.06;5095334;28;20032;-66
2023/03/05 09:46:43;;;;;;;1.92;0.50;;;;;;;4.05;47.81;100647.47;5110143;28;20042;-66
2023/03/05 09:49:19;;;;;;;3.00;0.47;;;;;;;3.88;48.36;100650.06;5115984;28;20028;-66
2023/03/05 09:51:50;;;;;;;1.20;0.32;;;;;;;4.21;49.08;100651.03;5090731;28;20428;-66
2023/03/05 09:54:20;;;;;;;1.15;0.20;;;;;;;4.15;48.72;100637.53;5090809;28;20027;-66
2023/03/05 09:56:59;;;;;;;0.95;0.25;;;;;;;3.93;50.45;100646.94;5094491;28;20028;-66
2023/03/05 09:59:27;;;;;;;1.90;0.30;;;;;;;3.92;50.01;100635.44;5094640;28;20024;-66
2023/03/05 10:01:57;;;;;;;3.45;0.50;;;;;;;3.79;49.25;100612.94;5095031;28;20020;-66
2023/03/05 10:04:30;;;;;;;1.30;0.32;;;;;;;3.94;49.53;100645.91;5094944;28;20627;-66
2023/03/05 10:07:04;;;;;;;2.75;0.50;;;;;;;3.66;48.65;100603.56;5094923;28;20069;-66
2023/03/05 10:09:29;;;;;;;2.33;0.40;;;;;;;3.73;48.45;100636.50;5093240;28;20069;-66
2023/03/05 10:12:04;;;;;;;1.55;0.50;;;;;;;3.85;50.53;100642.41;5094510;28;20028;-66
2023/03/05 10:14:32;;;;;;;3.03;0.50;;;;;;;3.75;49.67;100639.03;5090790;28;20035;-67
2023/03/05 10:17:19;;;;;;;1.38;0.20;;;;;;;3.91;47.71;100638.28;5099349;28;20507;-65
2023/03/05 10:19:44;;;;;;;0.98;0.20;;;;;;;3.79;48.00;100634.22;5098679;28;20073;-66
2023/03/05 10:22:20;;;;;;;1.92;0.40;;;;;;;3.80;49.66;100625.25;5103921;28;20420;-65
2023/03/05 10:25:10;;;;;;;3.55;0.50;;;;;;;3.82;47.76;100625.94;5102492;28;20027;-67
2023/03/05 10:27:45;;;;;;;2.33;0.40;;;;;;;3.76;49.54;100622.91;5099291;28;20027;-66
2023/03/05 10:30:19;;;;;;;;;;;;;;;3.63;48.31;100619.84;5097609;28;20054;-66
2023/03/05 10:33:04;;;;;;;1.35;0.38;;;;;;;3.71;47.67;100613.75;5105055;28;19915;-66
2023/03/05 10:35:33;;;;;;;;;;;;;;;3.84;47.56;100615.94;5111366;28;20088;-66
2023/03/05 10:38:23;;;;;;;2.78;0.73;;;;;;;3.83;48.40;100617.75;5098005;28;19989;-66
2023/03/05 10:40:53;;;;;;;2.60;0.50;;;;;;;3.88;50.57;100627.94;5105459;28;20019;-66
2023/03/05 10:43:19;;;;;;;5.05;0.50;;;;;;;3.81;51.14;100629.56;5106645;28;20102;-66
2023/03/05 10:45:50;;;;;;;4.22;0.60;;;;;;;3.76;52.26;100620.22;5096394;28;20109;-67
2023/03/05 10:48:41;;;;;;;3.75;0.50;;;;;;;3.65;50.00;100615.19;5081708;28;20042;-66
2023/03/05 10:51:34;;;;;;;2.78;0.60;;;;;;;3.74;51.25;100619.56;5097644;28;20055;-64
2023/03/05 10:54:24;;;;;;;4.80;0.50;;;;;;;3.84;50.19;100598.16;5098723;28;20032;-67
2023/03/05 10:56:49;;;;;;;1.30;0.50;;;;;;;3.75;48.60;100607.09;5096206;28;20020;-67
2023/03/05 10:59:15;;;;;;;4.45;0.73;;;;;;;3.86;50.41;100605.97;5100310;28;20031;-66
2023/03/05 11:01:40;;;;;;;1.45;0.20;;;;;;;3.83;50.42;100600.97;5089764;28;20111;-66
2023/03/05 11:04:28;;;;;;;1.23;0.30;;;;;;;3.84;50.10;100607.94;5105214;28;20398;-66
2023/03/05 11:06:53;;;;;;;2.35;0.40;;;;;;;3.73;50.37;100603.75;5102749;28;20104;-66
2023/03/05 11:09:31;;;;;;;3.83;0.73;;;;;;;3.76;50.38;100601.59;5115486;28;20047;-67
2023/03/05 11:12:07;;;;;;;1.38;0.20;;;;;;;3.67;49.05;100591.91;5109497;28;20169;-66
2023/03/05 11:14:34;;;;;;;3.30;0.43;;;;;;;3.26;50.08;100529.72;5108484;28;20039;-66
2023/03/05 11:17:02;;;;;;;4.20;0.60;;;;;;;3.75;51.12;100602.59;5095412;28;20043;-66
2023/03/05 11:19:33;;;;;;;4.82;0.40;;;;;;;3.75;53.45;100591.97;5100970;28;20044;-67
2023/03/05 11:22:17;;;;;;;2.28;0.40;;;;;;;3.79;53.31;100588.97;5103377;28;20047;-65
2023/03/05 11:24:46;;;;;;;2.22;0.52;;;;;;;3.69;52.03;100591.75;5095018;27;20063;-67
2023/03/05 11:27:24;;;;;;;4.07;0.70;;;;;;;3.87;51.52;100597.81;5110981;28;20027;-66
2023/03/05 11:29:50;;;;;;;2.47;0.50;;;;;;;3.86;50.29;100579.34;5112398;28;20099;-66
2023/03/05 11:32:23;;;;;;;3.83;0.63;;;;;;;3.87;49.12;100583.69;5097533;28;20392;-66
2023/03/05 11:34:48;;;;;;;4.78;0.50;;;;;;;3.80;51.41;100564.84;5107980;28;20481;-66
2023/03/05 11:37:27;;;;;;;2.42;0.60;;;;;;;3.89;51.75;100571.06;5096310;28;20028;-66